Montville, OH (44064)

12:59 PM EDT on October 25, 2014 (GMT -0400)
KOHMONTV2 | Change Station
CLOSE
Current Station
Personal Weather Station
Location: Montville, OH
Elevation: 1282 ft
Nearby Weather Stations

Elev 1282 ft 41.59 °N, 81.05 °W | Updated 22 seconds ago

Mostly Cloudy
Mostly Cloudy
63.7 °F
Feels Like 63.7 °F
N
9.0
Wind Variable Wind from West
Gusts 16.0 mph

Today
High -- | Low -- °F
--% Chance of Precip.
Yesterday
High -- | Low -- °F
Precip. -- in
7:47 AM 6:28 PM
Waxing Crescent, 3% visible
Pressure 29.78 in
Visibility 10.0 miles
Clouds Overcast 4300 ft
Dew Point 52 °F
Humidity 67%
Rainfall 0.00 in
Snow Depth Not available.
UV 1 out of 12
Pollen 1.40 out of 12
Ozone Good
PM2.5 Moderate
Flu Activity Sporadic
METAR KHZY 251653Z AUTO 26019G26KT 10SM OVC043 19/10 A2978 RMK AO2 PK WND 25026/1652 SLP083 T01890100

More Conditions Fewer Conditions

Pressure 29.78 in
Visibility 10.0 miles
Clouds Overcast 4300 ft
Dew Point 52 °F
Humidity 67%
Rainfall 0.00 in
Snow Depth Not available.
UV 1 out of 12
Pollen 1.40 out of 12
Ozone Good
PM2.5 Moderate
Flu Activity Sporadic
METAR KHZY 251653Z AUTO 26019G26KT 10SM OVC043 19/10 A2978 RMK AO2 PK WND 25026/1652 SLP083 T01890100

More Conditions Fewer Conditions

10-Day Weather Forecast

Almanac

Astronomy

Oct. 25, 2014 Rise Set
Actual Time 7:47 AM EDT 6:28 PM EDT
Civil Twilight 7:19 AM EDT 6:56 PM EDT
Nautical Twilight 6:46 AM EDT 7:28 PM EDT
Astronomical Twilight 6:14 AM EDT 8:01 PM EDT
Moon 9:26 AM EDT 7:49 PM EDT
Length of Visible Light 11h 37m
Length of Day
10h 40m
Tomorrow will be 2m 33s shorter.
Waxing Crescent, 3% of the Moon is Illuminated
Today
Waxing Crescent
Oct 30
First Quarter
Nov 6
Full
Nov 14
Last Quarter
Nov 22
New

Today's Extremes

State Highs State Lows

Community

WunderPhotos

Upload Photos

1,764,901 photos uploaded!

Nearby

Air Quality

  Air Quality AQ Index Pollutant
Yesterday Good
PM10
Yesterday Good
OZONE
Current Moderate
PM2.5
Current Good
OZONE
Saturday Good
PM2.5
Saturday Good
OZONE
Sunday Good
PM2.5
Sunday Good
OZONE
Monday Good
PM2.5
Monday Good
OZONE

Snow Depth

Station Depth Elevation
No new snow has been reported.

Earthquake Activity

City Distance Mag. Time & Date
No recent earthquake activity has been reported nearby.
Minimum magnitude displayed is 2.5.

Coastal Water Temperatures

Place Temperature
Fairport, OH 53.1 °F
Cleveland, OH 57.9 °F

Nearby Weather Stations